createdAt,value
2022-12-03T00:01:13.939Z,4.25
2022-12-03T00:03:40.562Z,4.55
2022-12-03T00:06:07.422Z,4.15
2022-12-03T00:08:34.781Z,4.38
2022-12-03T00:11:01.305Z,4.05
2022-12-03T00:13:27.941Z,3.95
2022-12-03T00:15:54.617Z,4.30
2022-12-03T00:18:21.253Z,4.32
2022-12-03T00:20:48.019Z,3.83
2022-12-03T00:23:14.570Z,4.95
2022-12-03T00:25:41.071Z,4.75
2022-12-03T00:28:10.553Z,4.60
2022-12-03T00:33:03.946Z,4.47
2022-12-03T00:35:30.445Z,4.40
2022-12-03T00:37:57.112Z,4.13
2022-12-03T00:40:23.597Z,3.92
2022-12-03T00:42:50.100Z,4.35
2022-12-03T00:45:16.704Z,4.07
2022-12-03T00:47:45.960Z,3.65
2022-12-03T00:50:12.582Z,4.05
2022-12-03T00:52:39.147Z,3.95
2022-12-03T00:55:06.159Z,3.95
2022-12-03T00:57:32.677Z,3.63
2022-12-03T01:00:01.500Z,3.50
2022-12-03T01:02:28.049Z,3.75
2022-12-03T01:04:54.747Z,3.88
2022-12-03T01:07:21.455Z,3.80
2022-12-03T01:09:48.024Z,3.58
2022-12-03T01:12:14.679Z,3.70
2022-12-03T01:14:41.208Z,3.20
2022-12-03T01:17:07.658Z,4.13
2022-12-03T01:19:35.333Z,3.80
2022-12-03T01:22:02.408Z,4.03
2022-12-03T01:24:29.052Z,3.70
2022-12-03T01:26:56.733Z,3.75
2022-12-03T01:29:23.538Z,3.75
2022-12-03T01:32:08.642Z,3.70
2022-12-03T01:34:35.160Z,4.00
2022-12-03T01:37:01.630Z,3.80
2022-12-03T01:39:28.463Z,4.13
2022-12-03T01:41:55.315Z,3.92
2022-12-03T01:44:27.724Z,4.00
2022-12-03T01:46:56.597Z,4.45
2022-12-03T01:49:29.295Z,4.30
2022-12-03T01:51:56.317Z,4.47
2022-12-03T01:54:27.503Z,4.65
2022-12-03T01:56:54.611Z,4.35
2022-12-03T01:59:23.612Z,3.95
2022-12-03T02:01:50.195Z,4.55
2022-12-03T02:04:17.419Z,4.18
2022-12-03T02:06:44.855Z,4.32
2022-12-03T02:09:12.877Z,4.30
2022-12-03T02:11:47.452Z,4.20
2022-12-03T02:14:16.911Z,4.65
2022-12-03T02:16:44.005Z,4.38
2022-12-03T02:19:19.683Z,3.72
2022-12-03T02:22:12.422Z,4.10
2022-12-03T02:24:38.835Z,4.43
2022-12-03T02:27:05.456Z,4.35
2022-12-03T02:29:32.064Z,3.92
2022-12-03T02:31:58.650Z,4.93
2022-12-03T02:34:43.070Z,5.35
2022-12-03T02:37:27.419Z,7.25
2022-12-03T02:39:56.701Z,7.03
2022-12-03T02:42:35.361Z,7.55
2022-12-03T02:45:05.583Z,7.47
2022-12-03T02:47:34.076Z,7.60
2022-12-03T02:50:00.966Z,8.50
2022-12-03T02:52:27.509Z,9.18
2022-12-03T02:54:54.533Z,9.25
2022-12-03T02:57:22.518Z,8.85
2022-12-03T02:59:49.145Z,7.88
2022-12-03T03:02:18.725Z,7.80
2022-12-03T03:04:45.397Z,6.78
2022-12-03T03:07:12.058Z,7.28
2022-12-03T03:09:38.597Z,6.50
2022-12-03T03:12:05.463Z,5.55
2022-12-03T03:14:32.742Z,5.50
2022-12-03T03:16:59.418Z,5.00
2022-12-03T03:19:26.480Z,4.95
2022-12-03T03:21:53.559Z,4.90
2022-12-03T03:24:20.985Z,5.35
2022-12-03T03:26:48.183Z,4.70
2022-12-03T03:29:14.800Z,4.60
2022-12-03T03:31:45.177Z,4.47
2022-12-03T03:34:12.247Z,4.88
2022-12-03T03:36:39.181Z,4.30
2022-12-03T03:39:06.562Z,4.70
2022-12-03T03:41:33.718Z,4.35
2022-12-03T03:44:00.621Z,4.85
2022-12-03T03:46:28.366Z,4.72
2022-12-03T03:48:54.945Z,5.10
2022-12-03T03:51:21.834Z,5.45
2022-12-03T03:53:49.245Z,6.75
2022-12-03T03:56:20.700Z,6.72
2022-12-03T03:58:47.272Z,7.00
2022-12-03T04:01:14.483Z,7.30
2022-12-03T04:03:44.503Z,7.22
2022-12-03T04:06:11.430Z,6.57
2022-12-03T04:08:37.994Z,6.40
2022-12-03T04:11:22.994Z,5.53
2022-12-03T04:13:49.518Z,5.88
2022-12-03T04:16:16.073Z,5.47
2022-12-03T04:18:58.097Z,5.45
2022-12-03T04:21:43.275Z,5.95
2022-12-03T04:24:10.836Z,5.43
2022-12-03T04:26:56.081Z,4.68
2022-12-03T04:29:22.955Z,4.60
2022-12-03T04:32:08.399Z,4.85
2022-12-03T04:34:54.072Z,4.70
2022-12-03T04:37:20.953Z,5.13
2022-12-03T04:39:47.620Z,4.82
2022-12-03T04:42:14.164Z,4.80
2022-12-03T04:44:40.786Z,5.03
2022-12-03T04:47:07.302Z,4.97
2022-12-03T04:49:34.783Z,5.05
2022-12-03T04:52:01.331Z,4.95
2022-12-03T04:54:30.887Z,4.75
2022-12-03T04:59:24.042Z,3.78
2022-12-03T05:01:50.755Z,4.32
2022-12-03T05:04:17.471Z,4.18
2022-12-03T05:06:44.323Z,4.68
2022-12-03T05:09:13.175Z,4.40
2022-12-03T05:11:40.321Z,4.38
2022-12-03T05:14:10.458Z,4.35
2022-12-03T05:16:37.288Z,4.82
2022-12-03T05:19:05.669Z,5.05
2022-12-03T05:21:32.298Z,3.90
2022-12-03T05:23:58.857Z,4.30
2022-12-03T05:26:25.352Z,4.35
2022-12-03T05:28:51.910Z,5.00
2022-12-03T05:31:18.635Z,4.30
2022-12-03T05:33:45.286Z,4.93
2022-12-03T05:36:11.883Z,4.65
2022-12-03T05:38:38.579Z,4.78
2022-12-03T05:41:25.325Z,4.75
2022-12-03T05:43:51.867Z,4.60
2022-12-03T05:46:18.824Z,4.65
2022-12-03T05:48:45.779Z,4.13
2022-12-03T05:51:14.811Z,4.28
2022-12-03T05:53:41.293Z,4.32
2022-12-03T05:56:07.849Z,4.18
2022-12-03T05:58:34.401Z,4.20
2022-12-03T06:01:00.962Z,4.22
2022-12-03T06:03:27.618Z,4.28
2022-12-03T06:05:54.192Z,4.00
2022-12-03T06:08:20.657Z,4.82
2022-12-03T06:10:47.258Z,4.05
2022-12-03T06:13:13.779Z,3.63
2022-12-03T06:15:43.779Z,4.40
2022-12-03T06:18:10.919Z,4.25
2022-12-03T06:20:37.925Z,4.72
2022-12-03T06:23:04.507Z,4.03
2022-12-03T06:25:31.077Z,4.65
2022-12-03T06:27:57.599Z,3.75
2022-12-03T06:30:24.138Z,4.50
2022-12-03T06:32:50.700Z,4.47
2022-12-03T06:35:17.322Z,4.45
2022-12-03T06:37:43.864Z,4.35
2022-12-03T06:40:10.942Z,4.25
2022-12-03T06:42:37.590Z,4.22
2022-12-03T06:45:04.472Z,3.78
2022-12-03T06:47:30.993Z,3.88
2022-12-03T06:49:57.471Z,4.25
2022-12-03T06:52:24.126Z,4.53
2022-12-03T06:54:50.918Z,4.18
2022-12-03T06:57:17.675Z,4.28
2022-12-03T06:59:44.241Z,4.30
2022-12-03T07:02:12.547Z,4.35
2022-12-03T07:04:44.686Z,4.07
2022-12-03T07:07:12.774Z,3.50
2022-12-03T07:09:39.296Z,4.07
2022-12-03T07:12:05.976Z,4.00
2022-12-03T07:14:32.481Z,4.35
2022-12-03T07:16:58.975Z,4.18
2022-12-03T07:19:32.071Z,4.22
2022-12-03T07:21:59.301Z,4.43
2022-12-03T07:24:25.814Z,4.28
2022-12-03T07:26:52.369Z,3.83
2022-12-03T07:29:19.111Z,4.18
2022-12-03T07:31:45.824Z,4.28
2022-12-03T07:34:12.461Z,4.18
2022-12-03T07:36:39.073Z,4.40
2022-12-03T07:39:05.642Z,4.03
2022-12-03T07:41:32.220Z,3.90
2022-12-03T07:43:59.089Z,4.05
2022-12-03T07:46:25.939Z,3.78
2022-12-03T07:48:52.478Z,4.30
2022-12-03T07:51:19.089Z,4.30
2022-12-03T07:53:45.699Z,4.20
2022-12-03T07:56:12.250Z,4.03
2022-12-03T07:58:38.838Z,4.55
2022-12-03T08:01:05.519Z,3.92
2022-12-03T08:03:32.259Z,3.95
2022-12-03T08:05:58.798Z,4.65
2022-12-03T08:08:25.380Z,4.07
2022-12-03T08:10:51.865Z,4.00
2022-12-03T08:13:19.058Z,4.13
2022-12-03T08:15:45.790Z,4.05
2022-12-03T08:18:14.192Z,3.75
2022-12-03T08:20:42.844Z,3.70
2022-12-03T08:23:18.616Z,4.07
2022-12-03T08:25:45.779Z,3.67
2022-12-03T08:28:21.375Z,3.72
2022-12-03T08:31:19.780Z,3.83
2022-12-03T08:33:54.576Z,4.27
2022-12-03T08:36:26.670Z,3.80
2022-12-03T08:38:58.765Z,3.50
2022-12-03T08:41:44.141Z,3.80
2022-12-03T08:44:19.077Z,4.18
2022-12-03T08:46:45.607Z,4.25
2022-12-03T08:49:12.282Z,3.78
2022-12-03T08:51:41.283Z,3.90
2022-12-03T08:54:13.515Z,3.80
2022-12-03T08:56:41.315Z,3.80
2022-12-03T08:59:29.980Z,4.00
2022-12-03T09:01:58.543Z,3.55
2022-12-03T09:04:31.398Z,3.53
2022-12-03T09:06:58.020Z,3.40
2022-12-03T09:09:25.030Z,3.67
2022-12-03T09:11:52.115Z,3.75
2022-12-03T09:14:21.282Z,3.75
2022-12-03T09:16:49.076Z,3.85
2022-12-03T09:19:15.809Z,3.85
2022-12-03T09:21:42.360Z,4.30
2022-12-03T09:24:08.897Z,3.53
2022-12-03T09:26:35.484Z,3.45
2022-12-03T09:29:01.968Z,3.40
2022-12-03T09:31:28.600Z,3.70
2022-12-03T09:33:55.183Z,4.00
2022-12-03T09:36:21.726Z,3.28
2022-12-03T09:38:48.463Z,3.40
2022-12-03T09:41:15.074Z,3.45
2022-12-03T09:44:03.405Z,3.40
2022-12-03T09:46:29.669Z,3.08
2022-12-03T09:48:56.741Z,3.70
2022-12-03T09:51:25.896Z,3.38
2022-12-03T09:53:52.477Z,3.20
2022-12-03T09:56:22.251Z,3.28
2022-12-03T09:58:49.594Z,3.10
2022-12-03T10:01:16.444Z,3.63
2022-12-03T10:03:49.646Z,3.60
2022-12-03T10:06:19.078Z,3.22
2022-12-03T10:08:50.254Z,3.53
2022-12-03T10:11:18.627Z,2.85
2022-12-03T10:13:45.757Z,3.15
2022-12-03T10:16:15.282Z,3.03
2022-12-03T10:21:20.887Z,3.20
2022-12-03T10:23:49.630Z,3.45
2022-12-03T10:26:28.087Z,4.03
2022-12-03T10:28:59.381Z,3.15
2022-12-03T10:31:35.424Z,3.35
2022-12-03T10:34:01.900Z,4.43
2022-12-03T10:36:28.435Z,4.22
2022-12-03T10:39:10.615Z,3.88
2022-12-03T10:41:38.389Z,3.78
2022-12-03T10:44:26.024Z,4.13
2022-12-03T10:47:12.763Z,3.33
2022-12-03T10:49:40.457Z,3.50
2022-12-03T10:52:21.218Z,3.70
2022-12-03T10:54:50.770Z,3.38
2022-12-03T10:57:17.455Z,3.78
2022-12-03T10:59:44.271Z,4.07
2022-12-03T11:02:22.980Z,3.38
2022-12-03T11:04:50.733Z,3.40
2022-12-03T11:07:22.049Z,2.97
2022-12-03T11:09:51.211Z,3.10
2022-12-03T11:12:26.312Z,3.28
2022-12-03T11:14:56.822Z,3.00
2022-12-03T11:17:43.378Z,3.88
2022-12-03T11:20:36.057Z,3.50
2022-12-03T11:23:05.057Z,3.10
2022-12-03T11:25:46.022Z,3.17
2022-12-03T11:28:12.694Z,3.40
2022-12-03T11:30:51.261Z,3.92
2022-12-03T11:33:22.094Z,3.40
2022-12-03T11:36:03.695Z,3.30
2022-12-03T11:38:52.171Z,3.85
2022-12-03T11:41:33.656Z,3.45
2022-12-03T11:44:02.437Z,2.90
2022-12-03T11:46:41.760Z,3.60
2022-12-03T11:51:51.943Z,3.33
2022-12-03T11:54:19.670Z,3.30
2022-12-03T11:56:48.975Z,3.30
2022-12-03T11:59:16.544Z,3.60
2022-12-03T12:01:44.245Z,3.15
2022-12-03T12:04:29.188Z,2.97
2022-12-03T12:06:55.886Z,3.92
2022-12-03T12:09:48.992Z,4.03
2022-12-03T12:12:25.478Z,3.40
2022-12-03T12:14:52.032Z,3.30
2022-12-03T12:17:36.142Z,3.28
2022-12-03T12:20:26.191Z,3.03
2022-12-03T12:22:54.466Z,3.40
2022-12-03T12:25:30.326Z,2.92
2022-12-03T12:27:57.497Z,3.72
2022-12-03T12:30:24.165Z,3.50
2022-12-03T12:33:00.322Z,4.10
2022-12-03T12:35:32.961Z,3.33
2022-12-03T12:38:11.331Z,3.95
2022-12-03T12:40:39.926Z,3.42
2022-12-03T12:43:28.075Z,2.92
2022-12-03T12:45:56.355Z,3.55
2022-12-03T12:48:35.955Z,2.95
2022-12-03T12:51:18.777Z,3.47
2022-12-03T12:53:45.687Z,3.03
2022-12-03T12:56:15.371Z,3.30
2022-12-03T12:58:41.932Z,3.20
2022-12-03T13:01:16.310Z,3.42
2022-12-03T13:03:42.928Z,3.22
2022-12-03T13:06:11.600Z,3.42
2022-12-03T13:08:40.569Z,3.17
2022-12-03T13:11:41.281Z,3.70
2022-12-03T13:14:20.300Z,3.38
2022-12-03T13:16:49.076Z,4.38
2022-12-03T13:19:26.521Z,3.22
2022-12-03T13:21:55.116Z,3.50
2022-12-03T13:24:26.310Z,3.30
2022-12-03T13:26:52.932Z,3.05
2022-12-03T13:29:20.545Z,3.58
2022-12-03T13:31:52.858Z,3.40
2022-12-03T13:34:24.769Z,3.28
2022-12-03T13:36:57.675Z,3.25
2022-12-03T13:39:25.097Z,3.55
2022-12-03T13:42:13.270Z,3.63
2022-12-03T13:44:46.132Z,3.38
2022-12-03T13:47:15.168Z,4.07
2022-12-03T13:49:43.523Z,3.90
2022-12-03T13:52:12.808Z,3.25
2022-12-03T13:54:40.026Z,3.58
2022-12-03T13:57:06.610Z,3.80
2022-12-03T13:59:33.183Z,3.40
2022-12-03T14:01:59.746Z,3.42
2022-12-03T14:04:26.301Z,4.20
2022-12-03T14:06:52.899Z,3.80
2022-12-03T14:09:19.367Z,3.72
2022-12-03T14:12:04.542Z,4.18
2022-12-03T14:14:31.075Z,4.30
2022-12-03T14:17:00.067Z,4.15
2022-12-03T14:19:27.162Z,3.90
2022-12-03T14:21:53.646Z,4.18
2022-12-03T14:24:20.179Z,4.68
2022-12-03T14:26:46.764Z,4.32
2022-12-03T14:29:13.264Z,4.10
2022-12-03T14:31:39.818Z,4.10
2022-12-03T14:34:06.545Z,4.22
2022-12-03T14:36:33.008Z,4.00
2022-12-03T14:38:59.544Z,3.45
2022-12-03T14:41:44.745Z,4.07
2022-12-03T14:44:11.785Z,3.90
2022-12-03T14:46:38.354Z,4.45
2022-12-03T14:49:05.014Z,4.25
2022-12-03T14:51:31.565Z,3.80
2022-12-03T14:53:58.011Z,4.18
2022-12-03T14:56:24.518Z,3.83
2022-12-03T14:58:51.078Z,4.13
2022-12-03T15:01:17.771Z,4.18
2022-12-03T15:03:44.352Z,3.72
2022-12-03T15:06:10.965Z,4.22
2022-12-03T15:08:37.475Z,4.05
2022-12-03T15:11:04.061Z,3.97
2022-12-03T15:13:30.650Z,4.28
2022-12-03T15:15:59.623Z,3.55
2022-12-03T15:18:26.208Z,3.92
2022-12-03T15:20:52.769Z,3.65
2022-12-03T15:23:21.592Z,4.00
2022-12-03T15:25:51.453Z,3.95
2022-12-03T15:28:18.184Z,3.90
2022-12-03T15:30:44.687Z,3.30
2022-12-03T15:33:11.292Z,3.80
2022-12-03T15:35:37.803Z,4.47
2022-12-03T15:38:04.505Z,3.90
2022-12-03T15:40:33.626Z,3.63
2022-12-03T15:43:00.092Z,3.80
2022-12-03T15:45:26.711Z,3.67
2022-12-03T15:47:53.268Z,3.90
2022-12-03T15:50:19.768Z,3.80
2022-12-03T15:52:46.387Z,3.85
2022-12-03T15:55:12.964Z,4.70
2022-12-03T15:57:39.461Z,3.95
2022-12-03T16:00:07.039Z,4.35
2022-12-03T16:02:36.468Z,4.50
2022-12-03T16:07:30.265Z,4.47
2022-12-03T16:09:57.185Z,4.00
2022-12-03T16:12:24.585Z,4.10
2022-12-03T16:14:51.447Z,4.70
2022-12-03T16:17:17.991Z,4.15
2022-12-03T16:19:44.571Z,3.58
2022-12-03T16:22:11.109Z,3.78
2022-12-03T16:24:37.755Z,3.63
2022-12-03T16:27:04.528Z,4.32
2022-12-03T16:29:31.036Z,3.70
2022-12-03T16:31:57.602Z,3.97
2022-12-03T16:34:24.181Z,3.30
2022-12-03T16:36:50.946Z,3.70
2022-12-03T16:39:17.715Z,3.63
2022-12-03T16:41:44.293Z,4.13
2022-12-03T16:44:20.315Z,3.70
2022-12-03T16:46:47.072Z,3.80
2022-12-03T16:49:13.598Z,4.03
2022-12-03T16:51:40.106Z,3.65
2022-12-03T16:54:06.688Z,4.35
2022-12-03T16:56:33.212Z,3.72
2022-12-03T16:58:59.739Z,3.58
2022-12-03T17:01:26.269Z,4.10
2022-12-03T17:03:52.986Z,3.80
2022-12-03T17:06:19.548Z,4.72
2022-12-03T17:08:49.674Z,4.07
2022-12-03T17:11:16.927Z,3.72
2022-12-03T17:13:43.493Z,3.78
2022-12-03T17:16:10.088Z,4.05
2022-12-03T17:18:36.594Z,4.00
2022-12-03T17:21:06.670Z,5.03
2022-12-03T17:23:33.151Z,4.28
2022-12-03T17:25:59.665Z,4.47
2022-12-03T17:28:26.210Z,3.70
2022-12-03T17:30:52.747Z,3.50
2022-12-03T17:33:19.248Z,3.20
2022-12-03T17:35:46.609Z,4.15
2022-12-03T17:38:13.211Z,4.63
2022-12-03T17:40:39.864Z,4.40
2022-12-03T17:43:06.705Z,3.90
2022-12-03T17:45:33.188Z,3.97
2022-12-03T17:47:59.703Z,4.63
2022-12-03T17:50:26.234Z,5.32
2022-12-03T17:52:52.764Z,3.95
2022-12-03T17:55:30.939Z,3.95
2022-12-03T17:58:00.260Z,3.92
2022-12-03T18:00:26.796Z,3.90
2022-12-03T18:02:53.338Z,3.38
2022-12-03T18:05:19.983Z,3.38
2022-12-03T18:07:46.540Z,3.60
2022-12-03T18:10:13.074Z,3.40
2022-12-03T18:12:39.660Z,3.80
2022-12-03T18:15:06.675Z,4.43
2022-12-03T18:17:33.160Z,4.43
2022-12-03T18:19:59.803Z,4.28
2022-12-03T18:22:27.646Z,4.80
2022-12-03T18:24:54.700Z,5.43
2022-12-03T18:27:21.612Z,4.28
2022-12-03T18:29:48.179Z,4.05
2022-12-03T18:32:27.862Z,3.20
2022-12-03T18:34:55.812Z,3.58
2022-12-03T18:37:22.707Z,3.47
2022-12-03T18:39:49.217Z,3.45
2022-12-03T18:42:18.422Z,3.83
2022-12-03T18:44:49.958Z,3.70
2022-12-03T18:47:21.925Z,3.70
2022-12-03T18:49:48.844Z,3.92
2022-12-03T18:52:19.016Z,3.53
2022-12-03T18:54:46.310Z,4.57
2022-12-03T18:57:12.858Z,4.53
2022-12-03T18:59:39.526Z,4.53
2022-12-03T19:02:07.441Z,4.65
2022-12-03T19:04:34.032Z,4.43
2022-12-03T19:07:00.664Z,4.72
2022-12-03T19:09:27.242Z,4.18
2022-12-03T19:11:53.776Z,4.65
2022-12-03T19:14:20.319Z,4.72
2022-12-03T19:16:46.958Z,4.95
2022-12-03T19:19:13.572Z,5.25
2022-12-03T19:21:40.095Z,4.53
2022-12-03T19:26:55.460Z,4.13
2022-12-03T19:29:25.159Z,4.17
2022-12-03T19:31:52.237Z,4.40
2022-12-03T19:34:19.088Z,4.63
2022-12-03T19:36:45.953Z,4.60
2022-12-03T19:39:12.952Z,5.25
2022-12-03T19:41:41.049Z,5.45
2022-12-03T19:44:10.937Z,4.65
2022-12-03T19:46:37.904Z,4.63
2022-12-03T19:49:04.900Z,5.00
2022-12-03T19:51:35.796Z,4.90
2022-12-03T19:54:04.531Z,4.57
2022-12-03T19:56:31.437Z,4.68
2022-12-03T19:58:58.226Z,4.05
2022-12-03T20:01:27.987Z,3.75
2022-12-03T20:03:56.664Z,3.92
2022-12-03T20:06:25.621Z,4.03
2022-12-03T20:08:57.080Z,4.88
2022-12-03T20:11:26.661Z,4.70
2022-12-03T20:16:21.122Z,5.00
2022-12-03T20:18:48.887Z,5.13
2022-12-03T20:21:20.798Z,5.43
2022-12-03T20:23:47.392Z,5.00
2022-12-03T20:26:16.653Z,4.63
2022-12-03T20:28:43.407Z,4.03
2022-12-03T20:31:13.548Z,3.95
2022-12-03T20:33:42.593Z,4.10
2022-12-03T20:36:09.939Z,3.92
2022-12-03T20:38:39.554Z,3.90
2022-12-03T20:41:16.939Z,3.63
2022-12-03T20:43:43.472Z,4.15
2022-12-03T20:46:11.999Z,4.07
2022-12-03T20:48:39.366Z,4.67
2022-12-03T20:51:07.775Z,4.70
2022-12-03T20:53:34.826Z,5.45
2022-12-03T20:56:02.237Z,5.03
2022-12-03T20:58:29.787Z,5.18
2022-12-03T21:00:56.481Z,5.53
2022-12-03T21:03:23.029Z,4.55
2022-12-03T21:05:49.540Z,4.32
2022-12-03T21:08:39.665Z,4.50
2022-12-03T21:11:14.223Z,4.80
2022-12-03T21:13:44.312Z,5.47
2022-12-03T21:16:26.012Z,6.03
2022-12-03T21:19:00.964Z,5.20
2022-12-03T21:21:27.571Z,5.40
2022-12-03T21:23:54.800Z,5.60
2022-12-03T21:26:22.102Z,5.25
2022-12-03T21:28:51.167Z,4.82
2022-12-03T21:31:21.347Z,5.30
2022-12-03T21:33:52.217Z,5.15
2022-12-03T21:36:18.879Z,5.38
2022-12-03T21:38:45.792Z,5.90
2022-12-03T21:41:12.977Z,6.07
2022-12-03T21:43:39.518Z,6.05
2022-12-03T21:47:09.263Z,6.47
2022-12-03T21:48:54.172Z,6.15
2022-12-03T21:51:20.744Z,5.85
2022-12-03T21:53:47.498Z,5.70
2022-12-03T21:56:19.161Z,5.40
2022-12-03T21:58:46.404Z,4.85
2022-12-03T22:01:15.501Z,5.07
2022-12-03T22:03:42.213Z,3.95
2022-12-03T22:06:09.458Z,4.10
2022-12-03T22:08:36.129Z,3.80
2022-12-03T22:11:10.703Z,3.90
2022-12-03T22:13:38.491Z,4.10
2022-12-03T22:16:07.091Z,4.30
2022-12-03T22:18:33.772Z,3.80
2022-12-03T22:21:09.115Z,4.30
2022-12-03T22:23:35.877Z,4.13
2022-12-03T22:26:05.814Z,3.80
2022-12-03T22:28:33.000Z,3.70
2022-12-03T22:30:59.575Z,3.95
2022-12-03T22:33:26.156Z,3.53
2022-12-03T22:36:02.839Z,3.38
2022-12-03T22:38:30.612Z,3.67
2022-12-03T22:40:57.387Z,3.78
2022-12-03T22:43:24.150Z,4.07
2022-12-03T22:45:54.896Z,4.40
2022-12-03T22:48:22.804Z,4.97
2022-12-03T22:50:50.813Z,4.88
2022-12-03T22:53:17.648Z,4.45
2022-12-03T22:55:44.177Z,4.00
2022-12-03T22:58:11.597Z,3.70
2022-12-03T23:00:40.479Z,3.50
2022-12-03T23:03:07.662Z,3.35
2022-12-03T23:05:36.937Z,3.58
2022-12-03T23:08:05.295Z,3.45
2022-12-03T23:10:36.895Z,4.53
2022-12-03T23:13:04.398Z,5.13
2022-12-03T23:15:30.999Z,4.15
2022-12-03T23:18:00.703Z,5.10
2022-12-03T23:20:27.789Z,4.88
2022-12-03T23:22:54.738Z,4.53
2022-12-03T23:25:22.227Z,5.05
2022-12-03T23:27:48.825Z,4.05
2022-12-03T23:30:16.420Z,3.60
2022-12-03T23:32:44.554Z,3.47
2022-12-03T23:35:12.633Z,3.20
2022-12-03T23:37:42.178Z,3.00
2022-12-03T23:42:35.494Z,2.60
2022-12-03T23:45:02.081Z,3.25
2022-12-03T23:47:28.727Z,3.38
2022-12-03T23:49:55.463Z,3.55
2022-12-03T23:52:22.147Z,3.13
2022-12-03T23:54:48.638Z,3.13
2022-12-03T23:57:16.180Z,3.10
2022-12-03T23:59:43.379Z,3.10
